Time;durP1;ratioP1;P1;durP2;ratioP2;P2;SDS_P1;SDS_P2;PMS_P1;PMS_P2;Temp;Humidity;BMP_temperature;BMP_pressure;BME280_temperature;BME280_humidity;BME280_pressure;Samples;Min_cycle;Max_cycle;Signal;HPM_P1;HPM_P2
2021/09/19 00:00:43;;;;;;;6.25;5.40;;;;;;;12.21;100.00;98651.37;4398550;79;21562;-87
2021/09/19 00:06:46;;;;;;;8.60;5.70;;;;;;;12.18;100.00;98654.88;4401106;79;21061;-85
2021/09/19 00:12:47;;;;;;;9.50;6.45;;;;;;;12.15;100.00;98663.89;4366005;79;21170;-86
2021/09/19 00:18:56;;;;;;;10.28;7.30;;;;;;;12.12;99.99;98655.08;4370889;79;21084;-84
2021/09/19 00:25:08;;;;;;;11.78;7.45;;;;;;;12.00;99.84;98654.69;4405997;78;21049;-86
2021/09/19 00:31:21;;;;;;;9.08;6.72;;;;;;;11.86;99.88;98665.08;4368783;79;21066;-85
2021/09/19 00:37:44;;;;;;;9.28;6.28;;;;;;;11.72;100.00;98667.81;4412218;79;21600;-85
2021/09/19 00:50:25;;;;;;;;;;;;;;;11.51;100.00;98670.47;4280250;80;21585;-85
2021/09/19 00:56:33;;;;;;;10.03;6.47;;;;;;;11.38;100.00;98676.14;4402241;79;20664;-85
2021/09/19 01:02:53;;;;;;;14.00;6.90;;;;;;;11.34;100.00;98680.05;4373193;79;21035;-84
2021/09/19 01:15:43;;;;;;;11.33;8.48;;;;;;;11.43;100.00;98688.09;4386619;79;21078;-86
2021/09/19 01:21:58;;;;;;;16.12;9.65;;;;;;;11.46;100.00;98687.32;4369146;78;21575;-85
2021/09/19 01:28:33;;;;;;;14.45;10.10;;;;;;;11.44;100.00;98690.23;4411022;79;21103;-85
2021/09/19 01:48:17;;;;;;;22.93;11.03;;;;;;;11.47;100.00;98701.21;4396298;80;21667;-84
2021/09/19 02:01:07;;;;;;;10.72;7.97;;;;;;;11.28;99.83;98712.50;4391693;79;21026;-84
2021/09/19 02:28:10;;;;;;;14.63;8.35;;;;;;;10.87;100.00;98722.08;4312351;80;21142;-83
2021/09/19 02:34:21;;;;;;;14.73;9.85;;;;;;;10.93;100.00;98713.73;4337686;80;21052;-84
2021/09/19 02:40:52;;;;;;;21.82;11.33;;;;;;;10.93;100.00;98711.75;4311022;80;21012;-84
2021/09/19 02:53:56;;;;;;;19.17;12.53;;;;;;;10.95;100.00;98714.91;4327626;79;21015;-84
2021/09/19 03:06:46;;;;;;;18.82;10.15;;;;;;;10.92;100.00;98718.41;4350418;80;21095;-84
2021/09/19 03:33:40;;;;;;;15.30;8.93;;;;;;;10.50;99.59;98735.95;4369787;80;21127;-85
2021/09/19 04:13:36;;;;;;;13.93;8.48;;;;;;;9.96;99.16;98762.42;4380392;79;21035;-84
2021/09/19 04:33:38;;;;;;;14.95;8.98;;;;;;;9.71;99.01;98784.61;4309416;80;21066;-85
2021/09/19 04:53:40;;;;;;;12.82;9.05;;;;;;;9.65;98.93;98796.44;4337116;80;21630;-86
2021/09/19 05:13:35;;;;;;;15.58;9.90;;;;;;;9.58;98.56;98810.61;4339761;80;21062;-85
2021/09/19 05:19:42;;;;;;;15.68;9.53;;;;;;;9.50;98.77;98817.38;4366683;80;21058;-86
2021/09/19 05:25:56;;;;;;;13.60;8.95;;;;;;;9.50;98.64;98819.30;4369554;79;21078;-86
2021/09/19 05:38:40;;;;;;;15.03;8.45;;;;;;;9.44;98.66;98827.03;4219966;82;21090;-85
2021/09/19 05:45:01;;;;;;;11.30;8.15;;;;;;;9.46;98.85;98832.12;4238709;82;21066;-86
2021/09/19 06:19:26;;;;;;;11.43;9.38;;;;;;;9.41;98.65;98848.27;4357042;78;35030;-87
2021/09/19 06:38:54;;;;;;;12.75;8.63;;;;;;;9.41;98.34;98864.66;4285062;81;21129;-88
2021/09/19 07:26:01;;;;;;;16.17;10.15;;;;;;;9.22;98.15;98874.33;4298836;80;21812;-86
2021/09/19 07:38:39;;;;;;;14.80;8.83;;;;;;;9.32;98.25;98881.11;4276105;81;21045;-86
2021/09/19 07:51:27;;;;;;;13.18;9.18;;;;;;;9.55;98.31;98885.94;4289977;81;21056;-86
2021/09/19 08:04:32;;;;;;;11.33;7.15;;;;;;;9.78;97.81;98877.62;4250333;81;21576;-86
2021/09/19 08:24:40;;;;;;;8.73;5.90;;;;;;;10.05;97.53;98887.32;4277198;81;21619;-87
2021/09/19 08:51:27;;;;;;;13.50;9.15;;;;;;;10.04;96.70;98887.13;4217005;83;21663;-87
2021/09/19 09:31:46;;;;;;;11.90;6.65;;;;;;;10.32;96.50;98894.30;4191040;83;22445;-85
2021/09/19 10:05:00;;;;;;;7.95;4.47;;;;;;;10.42;96.11;98901.24;4124136;84;21218;-86
2021/09/19 10:11:02;;;;;;;10.28;5.85;;;;;;;10.53;95.79;98899.97;4160403;83;21080;-86
2021/09/19 10:31:33;;;;;;;7.85;4.60;;;;;;;10.84;95.25;98908.48;4282783;80;21517;-86
2021/09/19 10:44:49;;;;;;;10.95;5.47;;;;;;;10.81;94.77;98909.23;4282920;82;21064;-85
2021/09/19 11:32:45;;;;;;;11.08;6.70;;;;;;;10.93;94.73;98925.98;4193104;84;21082;-85
2021/09/19 12:19:14;;;;;;;12.93;6.92;;;;;;;11.40;93.57;98893.03;4239848;82;21041;-85
2021/09/19 12:25:49;;;;;;;11.97;8.30;;;;;;;11.53;93.06;98895.66;4188489;82;21022;-87
2021/09/19 12:32:26;;;;;;;17.07;8.93;;;;;;;11.53;92.40;98888.80;4255396;81;21041;-83
2021/09/19 12:52:19;;;;;;;17.05;11.90;;;;;;;11.95;93.00;98882.78;4110817;85;21131;-85
2021/09/19 13:05:04;;;;;;;16.30;10.05;;;;;;;11.98;91.97;98878.66;4036324;87;21043;-84
2021/09/19 13:18:25;;;;;;;13.18;10.32;;;;;;;11.71;91.48;98886.19;3990986;87;21235;-84
2021/09/19 13:24:32;;;;;;;;;;;;;;;11.58;91.56;98889.02;4029487;84;21665;-83
2021/09/19 13:31:13;;;;;;;15.70;10.70;;;;;;;11.47;91.38;98900.52;4265010;81;20193;-84
2021/09/19 14:24:25;;;;;;;21.93;15.80;;;;;;;11.16;92.06;98905.20;4049281;86;21251;-84
2021/09/19 14:51:22;;;;;;;26.47;18.53;;;;;;;11.06;92.10;98920.39;4110194;85;21171;-84
2021/09/19 14:57:38;;;;;;;20.77;15.35;;;;;;;11.05;92.22;98923.73;4093533;85;21130;-84
2021/09/19 15:11:08;;;;;;;20.37;14.30;;;;;;;11.06;92.11;98927.23;4161922;84;21082;-84
2021/09/19 15:17:15;;;;;;;21.73;15.28;;;;;;;11.01;91.84;98921.53;4106298;84;21098;-84
2021/09/19 15:30:21;;;;;;;16.57;13.48;;;;;;;10.98;92.19;98914.65;4142308;83;21099;-84
2021/09/19 15:36:36;;;;;;;19.23;12.37;;;;;;;10.93;92.11;98921.27;4050592;82;73621;-83
2021/09/19 15:42:38;;;;;;;24.43;14.90;;;;;;;10.92;91.99;98922.44;4151182;84;21122;-82
2021/09/19 15:48:44;;;;;;;21.17;13.75;;;;;;;10.83;92.17;98917.88;4218869;82;21004;-82
2021/09/19 15:54:45;;;;;;;19.02;13.75;;;;;;;10.83;92.08;98916.50;4211537;83;21032;-83
2021/09/19 16:00:47;;;;;;;23.98;16.10;;;;;;;10.82;92.30;98924.49;4172239;83;21575;-83
2021/09/19 16:06:48;;;;;;;26.65;16.12;;;;;;;10.78;92.20;98920.16;4200170;83;21101;-82
2021/09/19 16:12:53;;;;;;;20.20;13.83;;;;;;;10.80;92.52;98921.37;4234230;80;21044;-82
2021/09/19 16:18:53;;;;;;;19.02;13.40;;;;;;;10.81;92.58;98916.08;4330971;80;21047;-83
2021/09/19 16:24:55;;;;;;;23.90;14.28;;;;;;;10.81;92.70;98916.08;4328622;79;21535;-83
2021/09/19 16:30:56;;;;;;;28.83;16.30;;;;;;;10.82;92.93;98919.02;4334519;80;21559;-83
2021/09/19 16:36:57;;;;;;;26.65;16.65;;;;;;;10.78;92.84;98916.84;4306692;80;20969;-83
2021/09/19 16:43:00;;;;;;;26.33;17.67;;;;;;;10.74;92.82;98916.61;4207477;82;21048;-82
2021/09/19 16:49:01;;;;;;;19.50;14.60;;;;;;;10.74;93.06;98919.34;4206528;83;21049;-83
2021/09/19 16:55:08;;;;;;;22.70;15.32;;;;;;;10.78;93.32;98916.84;4325582;80;21588;-83
2021/09/19 17:01:07;;;;;;;22.73;13.80;;;;;;;10.78;93.49;98910.57;4314635;80;21117;-80
2021/09/19 17:07:14;;;;;;;23.00;14.23;;;;;;;10.78;93.45;98920.16;4314888;80;21560;-80
2021/09/19 17:13:16;;;;;;;25.37;13.53;;;;;;;10.79;93.42;98923.11;4310720;80;21592;-80
2021/09/19 17:19:17;;;;;;;21.40;14.18;;;;;;;10.76;93.42;98935.59;4338558;80;21547;-80
2021/09/19 17:25:18;;;;;;;27.05;15.65;;;;;;;10.76;93.70;98927.37;4320095;80;21143;-80
2021/09/19 17:31:21;;;;;;;24.57;15.80;;;;;;;10.75;93.73;98933.23;4317559;80;21171;-80
2021/09/19 17:37:22;;;;;;;26.12;16.70;;;;;;;10.74;93.84;98936.55;4064074;82;10000471;-80
2021/09/19 17:43:24;;;;;;;24.40;15.32;;;;;;;10.75;93.81;98946.34;4224447;82;21536;-80
2021/09/19 17:49:26;;;;;;;24.90;16.45;;;;;;;10.73;93.88;98954.72;4217039;82;21024;-80
2021/09/19 17:55:27;;;;;;;25.10;15.98;;;;;;;10.74;93.86;98956.31;4165583;84;21140;-80
2021/09/19 18:01:43;;;;;;;23.32;15.63;;;;;;;10.71;93.81;98963.91;4169124;84;21156;-80
2021/09/19 18:07:44;;;;;;;24.63;16.00;;;;;;;10.70;93.96;98957.64;4193719;82;21439;-82
2021/09/19 18:13:46;;;;;;;29.60;16.17;;;;;;;10.72;94.03;98957.26;4313036;80;21103;-82
2021/09/19 18:19:47;;;;;;;28.75;15.75;;;;;;;10.70;93.89;98952.16;4200635;82;21653;-83
2021/09/19 18:25:49;;;;;;;23.05;15.75;;;;;;;10.68;94.05;98953.11;4210037;82;20993;-82
2021/09/19 18:31:51;;;;;;;26.48;15.55;;;;;;;10.67;94.13;98956.23;4160697;83;21057;-84
2021/09/19 18:37:52;;;;;;;21.10;15.05;;;;;;;10.69;94.20;98951.17;4175920;83;21048;-82
2021/09/19 18:43:54;;;;;;;24.55;16.45;;;;;;;10.69;94.08;98957.44;4156993;83;21032;-82
2021/09/19 18:49:56;;;;;;;21.33;16.07;;;;;;;10.71;94.22;98957.06;4157628;84;21028;-82
2021/09/19 18:56:38;;;;;;;29.40;16.30;;;;;;;10.72;94.20;98955.89;4186038;83;21107;-83
2021/09/19 19:02:40;;;;;;;23.50;16.15;;;;;;;10.69;94.30;98964.28;4137510;83;21088;-83
2021/09/19 19:08:44;;;;;;;24.52;16.37;;;;;;;10.72;94.43;98969.58;4055358;84;10000409;-83
2021/09/19 19:14:46;;;;;;;23.38;16.73;;;;;;;10.70;94.51;98960.38;4331661;80;21008;-83
2021/09/19 19:21:13;;;;;;;29.48;17.30;;;;;;;10.66;94.45;98962.30;4319513;80;21519;-82
2021/09/19 19:27:16;;;;;;;26.93;16.73;;;;;;;10.61;94.70;98961.27;4322200;80;21013;-83
2021/09/19 19:33:17;;;;;;;30.52;18.32;;;;;;;10.61;94.78;98964.00;4305537;80;21521;-83
2021/09/19 19:39:19;;;;;;;28.83;19.00;;;;;;;10.63;94.94;98965.77;4302364;80;21415;-83
2021/09/19 19:45:21;;;;;;;33.60;19.17;;;;;;;10.61;94.82;98971.42;4326703;80;21012;-83
2021/09/19 19:51:23;;;;;;;27.90;18.67;;;;;;;10.60;94.81;98971.99;4308874;80;20985;-83
2021/09/19 19:57:25;;;;;;;30.00;19.10;;;;;;;10.61;94.80;98972.79;4314282;80;21532;-83
2021/09/19 20:03:27;;;;;;;24.75;17.10;;;;;;;10.56;94.80;98967.08;4319342;80;21643;-83
2021/09/19 20:09:28;;;;;;;33.48;17.27;;;;;;;10.60;94.91;98969.25;4328781;80;21005;-83
2021/09/19 20:15:31;;;;;;;26.12;16.30;;;;;;;10.55;95.09;98976.46;4326234;80;21078;-82
2021/09/19 20:21:34;;;;;;;26.10;17.48;;;;;;;10.59;95.13;98984.69;4341540;80;21037;-82
2021/09/19 20:27:36;;;;;;;25.05;15.70;;;;;;;10.59;95.18;98981.38;4186855;83;21020;-82
2021/09/19 20:33:37;;;;;;;30.97;15.83;;;;;;;10.60;95.29;98980.20;4210988;82;21353;-83
2021/09/19 20:39:40;;;;;;;27.30;15.78;;;;;;;10.63;95.42;98978.69;4349291;80;20984;-84
2021/09/19 20:45:41;;;;;;;24.32;16.15;;;;;;;10.64;95.48;98978.31;4301598;80;21037;-83
2021/09/19 20:51:43;;;;;;;30.45;15.55;;;;;;;10.59;95.09;98980.58;4298573;80;21561;-83
2021/09/19 20:57:45;;;;;;;24.95;15.43;;;;;;;10.53;95.45;98984.25;4339155;80;21007;-83
2021/09/19 21:03:46;;;;;;;22.93;15.83;;;;;;;10.48;95.47;98975.57;4315256;80;20973;-83
2021/09/19 21:09:47;;;;;;;25.37;16.37;;;;;;;10.49;95.33;98973.83;4193782;83;20998;-83
2021/09/19 21:15:49;;;;;;;29.98;16.40;;;;;;;10.44;95.39;98973.39;4160076;83;21175;-82
2021/09/19 21:21:50;;;;;;;25.97;16.65;;;;;;;10.44;95.57;98972.81;4166468;82;21005;-83
2021/09/19 21:27:53;;;;;;;21.25;14.83;;;;;;;10.44;95.54;98970.66;4234302;82;21044;-82
2021/09/19 21:33:54;;;;;;;24.47;15.55;;;;;;;10.46;95.79;98973.81;4193731;82;21021;-83
2021/09/19 21:39:55;;;;;;;29.42;14.87;;;;;;;10.46;95.78;98975.18;4177813;83;21009;-82
2021/09/19 21:45:57;;;;;;;26.68;15.28;;;;;;;10.39;95.79;98975.88;4166892;82;21106;-83
2021/09/19 21:51:58;;;;;;;25.52;15.08;;;;;;;10.45;96.02;98978.48;4153574;83;21087;-84
2021/09/19 21:57:59;;;;;;;24.10;15.40;;;;;;;10.51;95.97;98984.40;4171168;83;21036;-83
2021/09/19 22:04:00;;;;;;;23.10;15.38;;;;;;;10.47;95.77;98983.02;4173681;83;21031;-82
2021/09/19 22:10:04;;;;;;;29.10;14.35;;;;;;;10.51;95.96;98992.61;4182734;82;21087;-83
2021/09/19 22:16:08;;;;;;;22.75;14.95;;;;;;;10.51;95.98;98982.46;4182420;82;21540;-83
2021/09/19 22:22:10;;;;;;;26.35;14.40;;;;;;;10.52;96.12;98984.02;4185719;83;21604;-82
2021/09/19 22:28:13;;;;;;;24.77;14.95;;;;;;;10.54;96.10;98983.67;4168321;83;21068;-82
2021/09/19 22:34:14;;;;;;;26.12;14.78;;;;;;;10.53;95.98;98980.14;4197252;82;21084;-83
2021/09/19 22:40:16;;;;;;;24.32;13.88;;;;;;;10.54;96.02;98985.81;4167759;83;21012;-82
2021/09/19 22:46:19;;;;;;;24.02;15.15;;;;;;;10.55;96.18;98986.04;4218066;82;21094;-83
2021/09/19 22:52:21;;;;;;;23.18;15.38;;;;;;;10.57;96.23;98989.17;4190227;82;21103;-83
2021/09/19 22:58:25;;;;;;;28.67;15.95;;;;;;;10.57;96.25;98986.43;4198946;83;21075;-83
2021/09/19 23:04:26;;;;;;;26.30;16.40;;;;;;;10.55;96.13;98981.94;4176352;82;21017;-82
2021/09/19 23:10:28;;;;;;;25.57;15.95;;;;;;;10.54;96.07;98976.84;4303674;80;21084;-83
2021/09/19 23:16:29;;;;;;;29.52;18.32;;;;;;;10.57;96.35;98977.45;4326570;80;21035;-82
2021/09/19 23:22:31;;;;;;;32.08;18.07;;;;;;;10.60;96.47;98972.59;4323648;80;21040;-82
2021/09/19 23:28:32;;;;;;;26.50;17.35;;;;;;;10.62;96.50;98973.78;4306574;80;21040;-82
2021/09/19 23:34:34;;;;;;;29.35;18.37;;;;;;;10.62;96.51;98975.72;4326001;80;21615;-82
2021/09/19 23:40:35;;;;;;;28.30;18.80;;;;;;;10.64;96.66;98977.52;4196278;82;21088;-84
2021/09/19 23:46:36;;;;;;;33.30;20.90;;;;;;;10.64;96.70;98973.41;4195325;83;21013;-82
2021/09/19 23:52:37;;;;;;;28.80;18.65;;;;;;;10.63;96.60;98979.45;4200138;83;21038;-82
2021/09/19 23:58:38;;;;;;;32.35;18.98;;;;;;;10.63;96.73;98982.79;4326895;80;21017;-84
